Impacts METAR Board
IDs:

KJFK - New York/Kennedy Int, NY, US

Updated at: 2100 UTC 20 Jun 2019
Potential Impact None Slight Moderate High
Time 20/09Z 20/10Z 20/11Z 20/12Z 20/13Z 20/14Z 20/15Z 20/16Z 20/17Z 20/18Z 20/19Z 20/20Z 20/21Z
Temp67 67 68 68 69 69 70 72 73 76 74 72 72
Dewpt67 67 68 68 69 69 70 72 72 74 73 72 72
Altim29.67 29.68 29.66 29.66 29.65 29.65 29.63 29.62 29.59 29.56 29.53 29.52 29.51
VIS0.13 0.13 0.13 0.13 0.13 0.13 0.13 0.25 0.75 3 3 3 3
CIG3 3 2 2 2 2 3 3 4 5 6 6 5
CoverOVCOVCOVXOVXOVXOVXOVCOVCOVCBKNOVCOVCOVC
FltCatLIFRLIFRLIFRLIFRLIFRLIFRLIFRLIFRLIFRIFRIFRIFRIFR
WX-RA BRBR-DZ FG-DZ FG-DZ FG-DZ FGBRBRBRBRBRTS BR-RA BR
WDir8050110160170170160160180160160160120
WSpd5 3 4 3 5 8 10 9 9 9 8 6 4
WGst-- -- -- -- -- -- -- -- -- -- -- -- --
Raw hourly METARs
KJFK 200851Z 08005KT 1/8SM R04R/5000V6000FT -RA BR OVC003 19/19 A2967 RMK AO2 SFC VIS 3/4 RAE01B29 SLP048 P0001 60001 T01940194 58012 $
KJFK 200951Z 05003KT 1/8SM R04R/2200V3000FT BR OVC003 19/19 A2968 RMK AO2 SFC VIS 3/4 RAE05 SLP051 P0000 T01940194 $
KJFK 201051Z 11004KT 1/8SM R04R/1400V1600FT -DZ FG VV002 20/20 A2966 RMK AO2 SFC VIS 1/4 RAB0957E21DZB43 SLP044 P0001 T02000200 $
KJFK 201151Z 16003KT 1/8SM R04R/2000V2600FT -DZ FG VV002 20/20 A2966 RMK AO2 SFC VIS 1/4 SLP044 P0000 60002 70005 T02000200 10200 20189 58004 $
KJFK 201251Z 17005KT 1/8SM R04R/3000V4000FT -DZ FG VV002 21/21 A2965 RMK AO2 SFC VIS 1/4 DZE08B42 SLP039 P0000 T02060206 $
KJFK 201351Z 17008KT 1/8SM R04R/3500VP6000FT -DZ FG VV002 21/21 A2965 RMK AO2 SFC VIS 1/2 SLP040 P0000 T02060206
KJFK 201451Z 16010KT 1/8SM R04R/P6000FT BR FEW000 OVC003 21/21 A2963 RMK AO2 SFC VIS 1 1/2 DZE21 SLP032 BR FEW000 P0000 60000 T02110211 58012
KJFK 201551Z 16009KT 1/4SM R04R/P6000FT BR OVC003 22/22 A2962 RMK AO2 SFC VIS 4 SLP028 T02220222
KJFK 201651Z 18009KT 3/4SM R04R/P6000FT BR BKN004 BKN012 BKN055 OVC250 23/22 A2959 RMK AO2 SFC VIS 6 SLP020 CIG 003V005 BKN004 V SCT T02280222
KJFK 201751Z 16009KT 3SM BR FEW002 BKN005 BKN055 BKN250 24/23 A2956 RMK AO2 SFC VIS 4 SLP010 VIS SE-SW 1 1/2 60000 T02440233 10244 20200 58022
KJFK 201905Z 16008KT 3SM BR FEW002 OVC006 23/23 A2953 RMK AO2 SFC VIS 6 T02330228
KJFK 201951Z 16006KT 3SM TS BR BKN006 OVC025CB 22/22 A2952 RMK AO2 SFC VIS 5 LTG DSNT NW TSB37 SLP998 OCNL LTGIC W-NW TS W-NW MOV NE T02220222 $
KJFK 202051Z 12004KT 3SM -RA BR OVC005 22/22 A2951 RMK AO2 SFC VIS 5 LTG DSNT S-W RAB41 TSE20 SLP992 P0000 60000 T02220222 56018 $



Page loaded:  21:39 UTC  |   02:39 PM Pacific  |   03:39 PM Mountain  |   04:39 PM Central  |   05:39 PM Eastern

 

ADVISORIES

FORECASTS

FORECASTS

OBSERVATIONS

USER TOOLS

ABOUT US